首页
METAR-TAF:

METAR-TAF

机场 :

拉罗汤加国际机场

拉罗汤加岛, 库克群岛

纬度: 21-12S, 经度: 159-49W, 海拔: 7米

当前天气观测

该预报发布于58分钟前的00:00 UTC
风速8节,风向东转东北
温度 26°C
湿度 65%
气压 1015 hPa
能见度10公里或以上
散云层高于2500英尺
多云层高于29000英尺

METAR: NCRG 210000Z 06008KT 9999 SCT025 BKN290 26/19 Q1015

时间: 14:58 (00:58 UTC)

预报

该预报发布于1小时和57分钟前的23:01 UTC
预报有效从21日的 00点(UTC)到 21日的 24点(UTC)
风速9节,风向
能见度10公里或以上
散云层高于1800英尺
散云层高于4000英尺

TAF: NCRG 202301Z 2100/2124 08009KT 9999 SCT018 SCT040

超过4000个机场的气象观测和天气预报(METAR&TAF报告)。

可查询的气象台以黄色和红色小点在地图上表示。

将鼠标移到小点上方,可查看气象台名称。

然后点击查看天气观测和预报。

如需切换地图:点击带黑十字的绿色按钮放大地图;点击带横线的绿色按钮缩小地图;或者点击绿色箭头查看邻近地区的地图。


METAR-TAF: